createdAt,value
2023-08-11T00:02:09.050Z,19.26
2023-08-11T00:04:38.310Z,19.23
2023-08-11T00:07:06.779Z,19.21
2023-08-11T00:09:34.874Z,19.20
2023-08-11T00:12:02.648Z,19.18
2023-08-11T00:14:33.164Z,19.18
2023-08-11T00:17:01.125Z,19.16
2023-08-11T00:19:29.033Z,19.14
2023-08-11T00:21:58.673Z,19.14
2023-08-11T00:24:27.392Z,19.09
2023-08-11T00:26:55.203Z,19.10
2023-08-11T00:29:23.328Z,19.09
2023-08-11T00:31:51.177Z,19.05
2023-08-11T00:34:18.933Z,19.06
2023-08-11T00:36:47.079Z,19.05
2023-08-11T00:39:16.954Z,19.02
2023-08-11T00:41:44.721Z,19.01
2023-08-11T00:44:12.489Z,19.01
2023-08-11T00:46:40.617Z,18.98
2023-08-11T00:49:10.584Z,18.97
2023-08-11T00:51:38.423Z,18.98
2023-08-11T00:54:07.516Z,18.95
2023-08-11T00:56:37.525Z,18.95
2023-08-11T00:59:05.792Z,18.94
2023-08-11T01:01:33.644Z,18.93
2023-08-11T01:04:01.390Z,18.94
2023-08-11T01:06:34.984Z,18.94
2023-08-11T01:09:10.244Z,18.92
2023-08-11T01:11:44.247Z,18.91
2023-08-11T01:14:18.597Z,18.89
2023-08-11T01:16:48.353Z,18.88
2023-08-11T01:19:24.151Z,18.88
2023-08-11T01:21:54.110Z,18.86
2023-08-11T01:24:23.297Z,18.86
2023-08-11T01:26:51.100Z,18.85
2023-08-11T01:29:19.836Z,18.84
2023-08-11T01:31:47.687Z,18.83
2023-08-11T01:34:15.578Z,18.82
2023-08-11T01:36:43.900Z,18.81
2023-08-11T01:39:11.824Z,18.81
2023-08-11T01:41:41.330Z,18.80
2023-08-11T01:44:09.837Z,18.79
2023-08-11T01:46:37.678Z,18.77
2023-08-11T01:49:05.832Z,18.75
2023-08-11T01:51:33.758Z,18.75
2023-08-11T01:54:01.543Z,18.74
2023-08-11T01:56:30.238Z,18.72
2023-08-11T01:59:00.163Z,18.70
2023-08-11T02:01:27.982Z,18.69
2023-08-11T02:03:56.031Z,18.68
2023-08-11T02:06:23.855Z,18.64
2023-08-11T02:08:51.692Z,18.64
2023-08-11T02:11:19.446Z,18.62
2023-08-11T02:13:47.257Z,18.62
2023-08-11T02:16:16.476Z,18.62
2023-08-11T02:18:44.347Z,18.62
2023-08-11T02:21:13.582Z,18.61
2023-08-11T02:23:41.392Z,18.62
2023-08-11T02:26:09.191Z,18.59
2023-08-11T02:28:37.053Z,18.60
2023-08-11T02:31:05.098Z,18.61
2023-08-11T02:33:34.193Z,18.60
2023-08-11T02:36:02.228Z,18.57
2023-08-11T02:38:29.960Z,18.61
2023-08-11T02:40:57.801Z,18.59
2023-08-11T02:43:25.884Z,18.60
2023-08-11T02:45:53.703Z,18.60
2023-08-11T02:48:21.510Z,18.60
2023-08-11T02:50:50.754Z,18.54
2023-08-11T02:53:18.472Z,18.57
2023-08-11T02:55:46.145Z,18.56
2023-08-11T02:58:13.935Z,18.54
2023-08-11T03:00:42.223Z,18.51
2023-08-11T03:03:11.149Z,18.49
2023-08-11T03:05:39.164Z,18.46
2023-08-11T03:08:08.944Z,18.42
2023-08-11T03:10:46.639Z,18.46
2023-08-11T03:13:24.825Z,18.45
2023-08-11T03:15:53.413Z,18.44
2023-08-11T03:18:21.601Z,18.42
2023-08-11T03:20:49.660Z,18.43
2023-08-11T03:23:18.773Z,18.43
2023-08-11T03:25:46.579Z,18.42
2023-08-11T03:28:14.330Z,18.42
2023-08-11T03:30:42.229Z,18.42
2023-08-11T03:33:10.040Z,18.44
2023-08-11T03:35:37.868Z,18.42
2023-08-11T03:38:05.702Z,18.40
2023-08-11T03:40:35.102Z,18.40
2023-08-11T03:43:02.958Z,18.38
2023-08-11T03:45:30.806Z,18.37
2023-08-11T03:47:58.672Z,18.37
2023-08-11T03:50:26.502Z,18.34
2023-08-11T03:52:54.220Z,18.32
2023-08-11T03:55:22.230Z,18.31
2023-08-11T03:57:52.610Z,18.31
2023-08-11T04:00:21.391Z,18.31
2023-08-11T04:02:48.249Z,18.30
2023-08-11T04:05:16.064Z,18.25
2023-08-11T04:07:43.888Z,18.28
2023-08-11T04:10:12.915Z,18.24
2023-08-11T04:12:41.074Z,18.25
2023-08-11T04:15:11.247Z,18.25
2023-08-11T04:17:39.025Z,18.24
2023-08-11T04:20:14.015Z,18.25
2023-08-11T04:22:42.522Z,18.24
2023-08-11T04:25:11.857Z,18.25
2023-08-11T04:27:40.512Z,18.24
2023-08-11T04:30:11.461Z,18.25
2023-08-11T04:32:39.256Z,18.25
2023-08-11T04:35:09.060Z,18.24
2023-08-11T04:37:37.034Z,18.19
2023-08-11T04:40:07.960Z,18.23
2023-08-11T04:42:35.718Z,18.23
2023-08-11T04:45:03.749Z,18.22
2023-08-11T04:47:33.004Z,18.22
2023-08-11T04:50:00.906Z,18.20
2023-08-11T04:52:28.727Z,18.21
2023-08-11T04:54:56.597Z,18.22
2023-08-11T04:57:24.739Z,18.22
2023-08-11T04:59:52.559Z,18.22
2023-08-11T05:02:20.321Z,18.22
2023-08-11T05:04:49.495Z,18.23
2023-08-11T05:07:17.560Z,18.20
2023-08-11T05:09:45.341Z,18.21
2023-08-11T05:12:15.624Z,18.23
2023-08-11T05:14:43.849Z,18.22
2023-08-11T05:17:12.041Z,18.24
2023-08-11T05:19:40.100Z,18.27
2023-08-11T05:22:09.377Z,18.25
2023-08-11T05:24:37.169Z,18.28
2023-08-11T05:27:05.123Z,18.30
2023-08-11T05:29:32.933Z,18.28
2023-08-11T05:32:00.770Z,18.30
2023-08-11T05:34:28.528Z,18.30
2023-08-11T05:36:56.309Z,18.32
2023-08-11T05:39:25.571Z,18.31
2023-08-11T05:41:53.355Z,18.32
2023-08-11T05:44:21.175Z,18.30
2023-08-11T05:46:48.979Z,18.40
2023-08-11T05:49:16.814Z,18.45
2023-08-11T05:51:44.567Z,18.46
2023-08-11T05:54:12.320Z,18.43
2023-08-11T05:56:41.583Z,18.49
2023-08-11T05:59:09.396Z,18.50
2023-08-11T06:01:37.243Z,18.53
2023-08-11T06:04:05.749Z,18.54
2023-08-11T06:06:33.679Z,18.56
2023-08-11T06:09:01.475Z,18.60
2023-08-11T06:11:29.263Z,18.65
2023-08-11T06:13:58.476Z,18.63
2023-08-11T06:16:26.402Z,18.71
2023-08-11T06:18:54.304Z,18.74
2023-08-11T06:21:22.095Z,18.81
2023-08-11T06:23:49.892Z,18.86
2023-08-11T06:26:17.673Z,18.91
2023-08-11T06:28:46.202Z,18.97
2023-08-11T06:31:15.375Z,19.03
2023-08-11T06:33:43.222Z,19.04
2023-08-11T06:36:11.001Z,19.08
2023-08-11T06:38:38.821Z,19.13
2023-08-11T06:41:06.965Z,19.17
2023-08-11T06:43:34.764Z,19.21
2023-08-11T06:46:02.709Z,19.27
2023-08-11T06:48:32.012Z,19.32
2023-08-11T06:50:59.813Z,19.37
2023-08-11T06:53:27.611Z,19.40
2023-08-11T06:55:55.415Z,19.45
2023-08-11T06:58:26.048Z,19.49
2023-08-11T07:00:54.568Z,19.53
2023-08-11T07:03:22.355Z,19.60
2023-08-11T07:05:52.734Z,19.68
2023-08-11T07:08:21.007Z,19.74
2023-08-11T07:10:48.851Z,19.78
2023-08-11T07:13:16.575Z,19.83
2023-08-11T07:15:44.519Z,19.90
2023-08-11T07:18:12.630Z,19.94
2023-08-11T07:20:42.987Z,20.00
2023-08-11T07:23:12.488Z,20.08
2023-08-11T07:25:40.286Z,20.15
2023-08-11T07:28:08.180Z,20.21
2023-08-11T07:30:37.280Z,20.24
2023-08-11T07:33:05.710Z,20.31
2023-08-11T07:35:33.543Z,20.37
2023-08-11T07:38:01.402Z,20.44
2023-08-11T07:40:30.552Z,20.51
2023-08-11T07:42:59.465Z,20.56
2023-08-11T07:45:27.274Z,20.65
2023-08-11T07:47:55.188Z,20.72
2023-08-11T07:50:23.150Z,20.78
2023-08-11T07:52:50.908Z,20.86
2023-08-11T07:55:18.701Z,20.93
2023-08-11T07:57:47.975Z,21.01
2023-08-11T08:00:17.557Z,21.06
2023-08-11T08:02:46.293Z,21.14
2023-08-11T08:05:14.869Z,21.19
2023-08-11T08:07:42.805Z,21.24
2023-08-11T08:10:12.466Z,21.26
2023-08-11T08:12:41.813Z,21.31
2023-08-11T08:15:12.565Z,21.36
2023-08-11T08:17:40.584Z,21.43
2023-08-11T08:20:10.400Z,21.46
2023-08-11T08:22:38.466Z,21.55
2023-08-11T08:25:07.858Z,21.63
2023-08-11T08:27:35.981Z,21.69
2023-08-11T08:30:04.025Z,21.74
2023-08-11T08:32:34.860Z,21.79
2023-08-11T08:35:02.663Z,21.86
2023-08-11T08:37:32.693Z,21.90
2023-08-11T08:40:01.690Z,21.97
2023-08-11T08:42:30.048Z,22.03
2023-08-11T08:44:59.186Z,22.03
2023-08-11T08:47:27.533Z,22.17
2023-08-11T08:49:57.020Z,22.24
2023-08-11T08:52:25.287Z,22.31
2023-08-11T08:54:53.064Z,22.36
2023-08-11T08:57:23.085Z,22.41
2023-08-11T08:59:50.896Z,22.41
2023-08-11T09:02:18.772Z,22.47
2023-08-11T09:04:47.114Z,22.54
2023-08-11T09:07:18.406Z,22.61
2023-08-11T09:09:48.026Z,22.67
2023-08-11T09:12:15.902Z,22.73
2023-08-11T09:14:44.594Z,22.81
2023-08-11T09:17:13.079Z,22.86
2023-08-11T09:19:44.373Z,22.87
2023-08-11T09:22:12.447Z,22.94
2023-08-11T09:24:42.274Z,22.97
2023-08-11T09:27:10.104Z,23.05
2023-08-11T09:29:38.392Z,23.08
2023-08-11T09:32:06.568Z,23.13
2023-08-11T09:34:34.901Z,23.18
2023-08-11T09:37:02.624Z,23.26
2023-08-11T09:39:31.052Z,23.33
2023-08-11T09:42:01.690Z,23.37
2023-08-11T09:44:29.495Z,23.47
2023-08-11T09:46:57.932Z,23.53
2023-08-11T09:49:42.608Z,23.53
2023-08-11T09:52:11.267Z,23.55
2023-08-11T09:54:39.384Z,23.57
2023-08-11T09:57:08.899Z,23.59
2023-08-11T09:59:36.967Z,23.69
2023-08-11T10:02:05.107Z,23.78
2023-08-11T10:04:45.279Z,23.92
2023-08-11T10:07:15.634Z,24.04
2023-08-11T10:09:44.302Z,24.13
2023-08-11T10:12:14.321Z,24.16
2023-08-11T10:14:42.725Z,24.16
2023-08-11T10:17:11.922Z,24.17
2023-08-11T10:19:39.843Z,24.30
2023-08-11T10:22:08.160Z,24.28
2023-08-11T10:24:38.551Z,24.33
2023-08-11T10:27:17.936Z,24.39
2023-08-11T10:29:46.710Z,24.42
2023-08-11T10:32:14.533Z,24.52
2023-08-11T10:34:42.248Z,24.60
2023-08-11T10:37:10.085Z,24.69
2023-08-11T10:39:38.182Z,24.77
2023-08-11T10:42:06.565Z,24.82
2023-08-11T10:44:35.978Z,24.86
2023-08-11T10:47:05.298Z,24.87
2023-08-11T10:49:35.193Z,24.83
2023-08-11T10:52:03.775Z,24.90
2023-08-11T10:54:32.231Z,25.02
2023-08-11T10:57:02.508Z,25.07
2023-08-11T10:59:31.699Z,25.18
2023-08-11T11:02:01.478Z,25.24
2023-08-11T11:04:31.039Z,25.32
2023-08-11T11:06:59.796Z,25.37
2023-08-11T11:09:28.828Z,25.46
2023-08-11T11:11:57.126Z,25.57
2023-08-11T11:14:28.282Z,25.61
2023-08-11T11:17:00.247Z,25.66
2023-08-11T11:19:29.865Z,25.67
2023-08-11T11:21:57.717Z,25.74
2023-08-11T11:24:25.630Z,25.72
2023-08-11T11:26:53.518Z,25.64
2023-08-11T11:29:24.876Z,25.56
2023-08-11T11:31:53.456Z,25.50
2023-08-11T11:34:22.539Z,25.59
2023-08-11T11:36:51.854Z,25.72
2023-08-11T11:39:20.198Z,25.86
2023-08-11T11:41:47.928Z,25.92
2023-08-11T11:44:16.548Z,26.08
2023-08-11T11:46:44.492Z,26.11
2023-08-11T11:49:28.420Z,26.10
2023-08-11T11:52:16.374Z,26.19
2023-08-11T11:54:44.777Z,26.30
2023-08-11T11:57:12.614Z,26.41
2023-08-11T11:59:43.112Z,26.45
2023-08-11T12:02:13.930Z,26.48
2023-08-11T12:04:44.163Z,26.53
2023-08-11T12:07:13.032Z,26.53
2023-08-11T12:09:54.779Z,26.52
2023-08-11T12:12:25.532Z,26.51
2023-08-11T12:14:53.986Z,26.54
2023-08-11T12:17:23.248Z,26.58
2023-08-11T12:19:50.952Z,26.66
2023-08-11T12:22:18.749Z,26.73
2023-08-11T12:24:46.578Z,26.81
2023-08-11T12:27:15.770Z,26.84
2023-08-11T12:29:43.529Z,26.87
2023-08-11T12:32:11.648Z,26.96
2023-08-11T12:34:39.532Z,27.05
2023-08-11T12:37:07.504Z,27.07
2023-08-11T12:39:35.331Z,27.04
2023-08-11T12:42:03.184Z,27.06
2023-08-11T12:44:32.370Z,27.11
2023-08-11T12:47:00.190Z,27.09
2023-08-11T12:49:27.995Z,27.22
2023-08-11T12:51:56.048Z,27.25
2023-08-11T12:54:23.945Z,27.27
2023-08-11T12:56:51.862Z,27.24
2023-08-11T12:59:19.760Z,27.23
2023-08-11T13:01:49.019Z,27.25
2023-08-11T13:04:16.977Z,27.33
2023-08-11T13:06:44.728Z,27.35
2023-08-11T13:09:13.314Z,27.37
2023-08-11T13:11:41.063Z,27.42
2023-08-11T13:14:08.944Z,27.51
2023-08-11T13:16:37.566Z,27.58
2023-08-11T13:19:07.445Z,27.57
2023-08-11T13:21:35.306Z,27.62
2023-08-11T13:24:03.432Z,27.67
2023-08-11T13:26:31.248Z,27.72
2023-08-11T13:28:59.847Z,27.79
2023-08-11T13:31:28.806Z,27.83
2023-08-11T13:33:56.631Z,27.86
2023-08-11T13:36:25.869Z,27.86
2023-08-11T13:38:53.646Z,27.86
2023-08-11T13:41:21.457Z,27.87
2023-08-11T13:44:52.228Z,27.83
2023-08-11T13:47:20.043Z,27.85
2023-08-11T13:49:47.792Z,27.86
2023-08-11T13:52:15.857Z,27.90
2023-08-11T13:54:44.548Z,27.91
2023-08-11T13:57:12.363Z,27.91
2023-08-11T13:59:40.274Z,27.93
2023-08-11T14:02:09.748Z,27.96
2023-08-11T14:04:56.461Z,27.91
2023-08-11T14:07:31.004Z,27.88
2023-08-11T14:10:01.449Z,27.94
2023-08-11T14:12:29.248Z,27.97
2023-08-11T14:14:57.040Z,28.01
2023-08-11T14:17:24.845Z,28.05
2023-08-11T14:19:52.652Z,28.02
2023-08-11T14:22:21.790Z,27.96
2023-08-11T14:24:49.548Z,27.89
2023-08-11T14:27:17.321Z,27.89
2023-08-11T14:29:45.494Z,27.88
2023-08-11T14:32:23.026Z,27.94
2023-08-11T14:34:52.310Z,27.96
2023-08-11T14:37:21.962Z,27.96
2023-08-11T14:39:49.749Z,27.92
2023-08-11T14:42:18.032Z,27.98
2023-08-11T14:44:45.811Z,27.98
2023-08-11T14:47:14.914Z,28.01
2023-08-11T14:49:43.653Z,28.05
2023-08-11T14:52:12.230Z,28.12
2023-08-11T14:54:41.791Z,28.19
2023-08-11T14:57:10.732Z,28.19
2023-08-11T14:59:40.705Z,28.20
2023-08-11T15:02:09.431Z,28.16
2023-08-11T15:04:37.519Z,28.16
2023-08-11T15:07:05.454Z,28.12
2023-08-11T15:09:34.077Z,28.09
2023-08-11T15:12:03.356Z,28.08
2023-08-11T15:14:31.177Z,28.07
2023-08-11T15:16:59.149Z,28.06
2023-08-11T15:19:27.133Z,28.06
2023-08-11T15:21:55.700Z,28.06
2023-08-11T15:24:23.581Z,28.07
2023-08-11T15:26:51.417Z,28.06
2023-08-11T15:29:20.666Z,27.99
2023-08-11T15:31:48.654Z,27.90
2023-08-11T15:34:16.923Z,27.81
2023-08-11T15:36:45.507Z,27.80
2023-08-11T15:39:13.286Z,27.74
2023-08-11T15:41:41.084Z,27.70
2023-08-11T15:44:08.908Z,27.66
2023-08-11T16:59:47.533Z,25.16
2023-08-11T17:02:15.399Z,25.54
2023-08-11T17:04:43.275Z,25.88
2023-08-11T17:07:11.160Z,26.13
2023-08-11T17:09:38.980Z,26.32
2023-08-11T17:12:07.587Z,26.45
2023-08-11T17:14:35.443Z,26.54
2023-08-11T17:17:04.633Z,26.66
2023-08-11T17:19:32.622Z,26.73
2023-08-11T17:22:01.143Z,26.78
2023-08-11T17:24:28.966Z,26.84
2023-08-11T17:26:56.904Z,26.89
2023-08-11T17:29:24.638Z,26.93
2023-08-11T17:31:52.487Z,26.94
2023-08-11T17:34:21.705Z,26.94
2023-08-11T17:36:50.024Z,26.94
2023-08-11T17:39:17.788Z,26.93
2023-08-11T17:41:47.217Z,26.93
2023-08-11T17:44:15.142Z,26.92
2023-08-11T17:46:42.991Z,26.90
2023-08-11T17:49:10.889Z,26.89
2023-08-11T17:51:40.084Z,26.91
2023-08-11T17:54:10.311Z,26.89
2023-08-11T17:56:38.766Z,26.89
2023-08-11T17:59:06.958Z,26.89
2023-08-11T18:01:34.900Z,26.82
2023-08-11T18:04:06.244Z,26.81
2023-08-11T18:07:57.088Z,26.79
2023-08-11T18:11:08.494Z,26.78
2023-08-11T18:13:58.796Z,26.75
2023-08-11T18:16:28.274Z,26.76
2023-08-11T18:18:57.263Z,26.74
2023-08-11T18:21:25.040Z,26.75
2023-08-11T18:23:52.796Z,26.74
2023-08-11T18:26:20.558Z,26.72
2023-08-11T18:28:48.421Z,26.67
2023-08-11T18:31:17.657Z,26.56
2023-08-11T18:33:45.497Z,26.49
2023-08-11T18:36:13.307Z,26.42
2023-08-11T18:38:45.566Z,26.37
2023-08-11T18:41:13.401Z,26.30
2023-08-11T18:43:42.119Z,26.25
2023-08-11T18:46:10.061Z,26.19
2023-08-11T18:48:39.272Z,26.13
2023-08-11T18:51:07.034Z,26.09
2023-08-11T18:53:34.806Z,26.01
2023-08-11T18:56:02.653Z,25.95
2023-08-11T18:58:30.627Z,25.90
2023-08-11T19:00:58.593Z,25.82
2023-08-11T19:03:26.434Z,25.81
2023-08-11T19:05:55.664Z,25.78
2023-08-11T19:08:23.482Z,25.78
2023-08-11T19:10:51.311Z,25.76
2023-08-11T19:13:19.239Z,25.71
2023-08-11T19:15:48.244Z,25.62
2023-08-11T19:18:16.427Z,25.65
2023-08-11T19:20:45.258Z,25.65
2023-08-11T19:23:14.625Z,25.64
2023-08-11T19:25:42.445Z,25.61
2023-08-11T19:28:12.088Z,25.59
2023-08-11T19:30:40.109Z,25.54
2023-08-11T19:33:08.115Z,25.49
2023-08-11T19:35:36.027Z,25.46
2023-08-11T19:38:04.389Z,25.44
2023-08-11T19:40:33.565Z,25.40
2023-08-11T19:43:01.349Z,25.38
2023-08-11T19:45:29.283Z,25.36
2023-08-11T19:47:57.233Z,25.35
2023-08-11T19:50:25.057Z,25.32
2023-08-11T19:52:53.893Z,25.32
2023-08-11T19:55:21.719Z,25.30
2023-08-11T19:57:51.042Z,25.28
2023-08-11T20:00:19.117Z,25.27
2023-08-11T20:02:46.945Z,25.25
2023-08-11T20:05:15.848Z,25.23
2023-08-11T20:07:43.611Z,25.22
2023-08-11T20:10:11.972Z,25.21
2023-08-11T20:12:39.787Z,25.17
2023-08-11T20:15:10.794Z,25.15
2023-08-11T20:17:38.664Z,25.13
2023-08-11T20:20:07.733Z,25.10
2023-08-11T20:22:35.535Z,25.06
2023-08-11T20:25:03.497Z,25.05
2023-08-11T20:27:31.264Z,25.04
2023-08-11T20:29:59.090Z,25.02
2023-08-11T20:32:28.384Z,24.96
2023-08-11T20:34:56.346Z,24.93
2023-08-11T20:37:24.228Z,24.89
2023-08-11T20:39:52.111Z,24.86
2023-08-11T20:42:20.000Z,24.82
2023-08-11T20:44:47.977Z,24.76
2023-08-11T20:47:15.784Z,24.74
2023-08-11T20:49:44.990Z,24.70
2023-08-11T20:52:12.701Z,24.65
2023-08-11T20:54:44.204Z,24.64
2023-08-11T20:57:12.403Z,24.63
2023-08-11T20:59:40.734Z,24.57
2023-08-11T21:02:08.766Z,24.59
2023-08-11T21:04:36.789Z,24.56
2023-08-11T21:07:06.226Z,24.53
2023-08-11T21:09:34.204Z,24.51
2023-08-11T21:12:02.194Z,24.49
2023-08-11T21:14:30.169Z,24.44
2023-08-11T21:17:00.385Z,24.47
2023-08-11T21:19:30.062Z,24.44
2023-08-11T21:21:57.932Z,24.42
2023-08-11T21:24:27.133Z,24.40
2023-08-11T21:26:55.072Z,24.38
2023-08-11T21:29:23.156Z,24.37
2023-08-11T21:31:50.960Z,24.39
2023-08-11T21:34:18.897Z,24.37
2023-08-11T21:36:46.729Z,24.38
2023-08-11T21:39:14.567Z,24.37
2023-08-11T21:41:43.749Z,24.39
2023-08-11T21:44:11.636Z,24.37
2023-08-11T21:46:39.405Z,24.37
2023-08-11T21:49:07.173Z,24.36
2023-08-11T21:51:34.944Z,24.34
2023-08-11T21:54:02.676Z,24.34
2023-08-11T21:56:30.439Z,24.34
2023-08-11T21:58:59.744Z,24.34
2023-08-11T22:01:27.673Z,24.34
2023-08-11T22:03:55.573Z,24.31
2023-08-11T22:06:23.430Z,24.28
2023-08-11T22:08:51.188Z,24.29
2023-08-11T22:11:35.440Z,24.29
2023-08-11T22:14:06.470Z,24.28
2023-08-11T22:16:34.654Z,24.26
2023-08-11T22:19:02.504Z,24.24
2023-08-11T22:21:30.330Z,24.23
2023-08-11T22:23:58.367Z,24.22
2023-08-11T22:26:26.243Z,24.21
2023-08-11T22:28:54.097Z,24.19
2023-08-11T22:31:23.284Z,24.18
2023-08-11T22:33:51.218Z,24.12
2023-08-11T22:36:19.109Z,24.12
2023-08-11T22:38:46.877Z,24.10
2023-08-11T22:41:14.710Z,24.08
2023-08-11T22:43:42.535Z,24.06
2023-08-11T22:46:10.391Z,24.06
2023-08-11T22:48:39.577Z,24.04
2023-08-11T22:51:07.616Z,24.02
2023-08-11T22:53:35.705Z,24.01
2023-08-11T22:56:03.841Z,24.00
2023-08-11T22:58:32.110Z,24.02
2023-08-11T23:01:01.528Z,24.00
2023-08-11T23:03:29.382Z,24.01
2023-08-11T23:05:58.637Z,24.00
2023-08-11T23:08:26.440Z,23.97
2023-08-11T23:10:54.222Z,23.99
2023-08-11T23:13:22.043Z,23.97
2023-08-11T23:15:49.936Z,23.97
2023-08-11T23:18:17.772Z,23.93
2023-08-11T23:20:46.976Z,23.95
2023-08-11T23:23:16.379Z,23.93
2023-08-11T23:25:45.142Z,23.93
2023-08-11T23:28:13.252Z,23.82
2023-08-11T23:30:41.263Z,23.90
2023-08-11T23:33:09.039Z,23.90
2023-08-11T23:35:40.222Z,23.88
2023-08-11T23:38:08.040Z,23.85
2023-08-11T23:40:37.266Z,23.76
2023-08-11T23:43:05.605Z,23.79
2023-08-11T23:45:33.496Z,23.79
2023-08-11T23:48:01.491Z,23.75
2023-08-11T23:50:29.496Z,23.73
2023-08-11T23:52:57.325Z,23.70
2023-08-11T23:55:26.016Z,23.69
2023-08-11T23:57:55.593Z,23.66
